CYKA

Kamloops Airport

Kamloops, British Columbia, Canada
METAR CYKA 191600Z 18010G16KT 050V220 40SM FEW045 07/M01 A2980 RMK SC2 SLP104
Observed Flight Rules
Jan-19 @ 16:00 UTC (38 minutes ago) Visual Flight Rules
Wind Visibility Clouds
180° at 10 knots
 Gusting to 16 knots
40 miles
  • Few at 4,500' AGL
Temperatures Readings
Current 7°C / 45°F
Dewpoint -1°C / 30°F
Humidity 57%
Altimeter 29.8" Hg
Pressure 1010.4 hPa
Elevation 346
METAR CYKA 191600Z 18010G16KT 050V220 40SM FEW045 07/M01 A2980 RMK SC2 SLP104
Observed Flight Rules
Jan-19 @ 16:00 UTC
(38 minutes ago)
VFR
Wind Visibility
180° at 10 knots
 Gusting to 16 knots
40 miles
Clouds
  • Few at 4,500' AGL
Temperature Dewpoint
7°C / 45°F -1°C / 30°F
Humidity Altimeter Pressure
57% 29.8" Hg 1010.4 hPa